Time;durP1;ratioP1;P1;durP2;ratioP2;P2;SDS_P1;SDS_P2;PMS_P1;PMS_P2;Temp;Humidity;BMP_temperature;BMP_pressure;BME280_temperature;BME280_humidity;BME280_pressure;Samples;Min_cycle;Max_cycle;Signal;HPM_P1;HPM_P2
2022/05/05 00:00:13;;;;;;;10.70;8.43;;;9.40;76.80;;;;;;4974201;28;20046;-76
2022/05/05 00:02:39;;;;;;;10.45;7.70;;;9.40;77.00;;;;;;4972836;28;20370;-76
2022/05/05 00:05:05;;;;;;;12.95;8.40;;;9.40;76.70;;;;;;4989108;28;20051;-80
2022/05/05 00:07:31;;;;;;;9.65;7.70;;;9.40;77.30;;;;;;4974128;28;20536;-76
2022/05/05 00:09:56;;;;;;;9.88;7.28;;;9.20;77.50;;;;;;4974097;28;20134;-76
2022/05/05 00:15:07;;;;;;;9.48;6.80;;;9.10;78.90;;;;;;4993553;28;20041;-80
2022/05/05 00:17:34;;;;;;;8.60;6.90;;;9.10;79.40;;;;;;4992166;28;20050;-77
2022/05/05 00:20:00;;;;;;;8.02;6.45;;;9.10;79.50;;;;;;4993372;28;20033;-76
2022/05/05 00:22:26;;;;;;;8.55;7.60;;;9.10;79.20;;;;;;4993508;28;20388;-81
2022/05/05 00:24:51;;;;;;;9.63;6.72;;;9.20;78.70;;;;;;4993384;28;20034;-80
2022/05/05 00:27:17;;;;;;;8.82;6.70;;;9.20;78.60;;;;;;4993612;28;20030;-77
2022/05/05 00:29:42;;;;;;;10.18;7.45;;;9.20;77.60;;;;;;4993340;28;20039;-81
2022/05/05 00:32:09;;;;;;;10.15;7.30;;;9.20;77.60;;;;;;4992265;28;20428;-76
2022/05/05 00:34:34;;;;;;;10.90;7.07;;;9.20;77.00;;;;;;4975907;28;20050;-76
2022/05/05 00:37:00;;;;;;;11.48;7.43;;;9.30;76.80;;;;;;4976000;28;20062;-77
2022/05/05 00:39:25;;;;;;;13.07;7.35;;;9.30;76.80;;;;;;4976067;28;20026;-76
2022/05/05 00:41:52;;;;;;;7.85;6.78;;;9.30;76.80;;;;;;4976046;28;20110;-76
2022/05/05 00:44:18;;;;;;;10.13;7.57;;;9.20;76.60;;;;;;4993616;28;20030;-76
2022/05/05 00:46:51;;;;;;;10.02;6.95;;;9.30;76.20;;;;;;4993418;28;20019;-80
2022/05/05 00:49:18;;;;;;;10.50;7.65;;;9.30;75.90;;;;;;4993368;28;20038;-76
2022/05/05 00:51:44;;;;;;;11.80;8.43;;;9.30;76.10;;;;;;4975940;28;20468;-77
2022/05/05 00:54:10;;;;;;;8.63;7.65;;;9.30;76.70;;;;;;4977583;28;20109;-80
2022/05/05 00:56:36;;;;;;;10.13;7.38;;;9.30;77.20;;;;;;4995489;28;20547;-80
2022/05/05 00:59:02;;;;;;;11.48;8.23;;;9.40;77.50;;;;;;4979373;28;20057;-77
2022/05/05 01:01:27;;;;;;;10.27;7.35;;;9.30;77.40;;;;;;4996715;28;20058;-76
2022/05/05 01:03:53;;;;;;;10.93;8.27;;;9.30;77.40;;;;;;4996686;28;20076;-80
2022/05/05 01:06:19;;;;;;;12.20;7.85;;;9.20;77.70;;;;;;4979203;28;20035;-77
2022/05/05 01:08:46;;;;;;;10.10;7.40;;;9.10;78.30;;;;;;4996700;28;20109;-76
2022/05/05 01:11:12;;;;;;;9.88;7.10;;;9.10;78.40;;;;;;4996443;28;20164;-77
2022/05/05 01:13:40;;;;;;;9.18;7.72;;;9.10;78.40;;;;;;4995333;28;20387;-80
2022/05/05 01:16:07;;;;;;;10.00;7.28;;;9.00;78.80;;;;;;4979024;28;20023;-76
2022/05/05 01:18:33;;;;;;;10.93;7.90;;;8.90;79.20;;;;;;4996352;28;20069;-81
2022/05/05 01:20:59;;;;;;;10.75;8.30;;;8.90;79.80;;;;;;4996419;28;20482;-76
2022/05/05 01:23:24;;;;;;;12.70;8.13;;;8.80;80.40;;;;;;4994996;28;20162;-77
2022/05/05 01:28:39;;;;;;;11.98;7.63;;;8.70;81.30;;;;;;4996631;28;20050;-79
2022/05/05 01:31:07;;;;;;;10.13;7.70;;;8.70;81.70;;;;;;4996278;28;20122;-76
2022/05/05 01:33:33;;;;;;;11.82;7.80;;;8.70;81.50;;;;;;4978699;28;20019;-75
2022/05/05 01:35:59;;;;;;;12.18;7.88;;;8.70;81.90;;;;;;4996058;28;20088;-76
2022/05/05 01:38:36;;;;;;;11.32;7.93;;;8.60;82.10;;;;;;4978701;28;20396;-79
2022/05/05 01:41:12;;;;;;;11.10;7.93;;;8.60;82.30;;;;;;4978597;28;20026;-76
2022/05/05 01:43:41;;;;;;;11.85;8.00;;;8.60;82.70;;;;;;4996245;28;20447;-80
2022/05/05 01:46:07;;;;;;;11.35;7.78;;;8.60;82.00;;;;;;4994557;28;20034;-81
2022/05/05 01:48:33;;;;;;;9.90;8.48;;;8.50;83.40;;;;;;4995756;28;20018;-76
2022/05/05 01:50:59;;;;;;;9.88;8.05;;;8.60;83.00;;;;;;4999538;28;20449;-81
2022/05/05 01:53:25;;;;;;;11.07;8.02;;;8.50;83.00;;;;;;4997648;28;20064;-77
2022/05/05 01:55:51;;;;;;;10.23;8.10;;;8.50;83.80;;;;;;4997637;28;20053;-80
2022/05/05 01:58:17;;;;;;;12.25;8.05;;;8.50;83.70;;;;;;5015174;28;20402;-77
2022/05/05 02:00:43;;;;;;;10.48;8.32;;;8.60;83.60;;;;;;4997498;28;20026;-76
2022/05/05 02:03:15;;;;;;;9.43;7.95;;;8.50;83.70;;;;;;4997535;28;20028;-80
2022/05/05 02:05:41;;;;;;;9.57;8.55;;;8.50;84.00;;;;;;5014158;28;20030;-80
2022/05/05 02:08:07;;;;;;;11.55;8.15;;;8.50;84.30;;;;;;5015031;28;20029;-80
2022/05/05 02:10:33;;;;;;;9.68;8.02;;;8.50;84.90;;;;;;5014771;28;20053;-79
2022/05/05 02:12:59;;;;;;;10.75;7.80;;;8.50;83.70;;;;;;5015233;28;20365;-76
2022/05/05 02:15:24;;;;;;;11.93;8.50;;;8.50;84.20;;;;;;5014932;28;20034;-76
2022/05/05 02:17:51;;;;;;;11.05;7.25;;;8.50;84.60;;;;;;4997182;28;20014;-80
2022/05/05 02:20:16;;;;;;;9.60;7.28;;;8.40;84.50;;;;;;4996977;28;20048;-76
2022/05/05 02:22:42;;;;;;;10.90;7.57;;;8.40;84.10;;;;;;5014827;28;20476;-80
2022/05/05 02:25:09;;;;;;;11.25;8.48;;;8.30;84.30;;;;;;5014657;28;20021;-80
2022/05/05 02:27:51;;;;;;;8.65;7.75;;;8.30;85.50;;;;;;5014698;28;20026;-78
2022/05/05 02:30:19;;;;;;;11.30;8.25;;;8.30;85.60;;;;;;5014524;28;20038;-75
2022/05/05 02:32:45;;;;;;;12.88;8.75;;;8.20;85.50;;;;;;5014626;28;20018;-79
2022/05/05 02:35:11;;;;;;;13.23;7.95;;;8.20;86.10;;;;;;5014543;28;20033;-80
2022/05/05 02:40:22;;;;;;;13.05;8.23;;;8.10;86.90;;;;;;5014549;28;20037;-76
2022/05/05 02:42:48;;;;;;;10.45;8.32;;;8.10;87.80;;;;;;5014524;28;20384;-75
2022/05/05 02:45:13;;;;;;;13.80;8.68;;;8.00;88.50;;;;;;4996856;28;20453;-75
2022/05/05 02:47:39;;;;;;;14.45;8.90;;;8.00;88.40;;;;;;4996617;28;20112;-76
2022/05/05 02:50:05;;;;;;;15.52;8.13;;;8.00;88.30;;;;;;5012931;28;20124;-79
2022/05/05 02:52:30;;;;;;;13.18;8.32;;;8.10;88.80;;;;;;5012851;28;20029;-79
2022/05/05 02:54:56;;;;;;;11.35;8.63;;;8.00;88.50;;;;;;5012890;28;20026;-76
2022/05/05 02:57:23;;;;;;;12.18;8.10;;;8.00;89.00;;;;;;5014272;28;20603;-79
2022/05/05 02:59:55;;;;;;;18.67;10.00;;;8.00;89.00;;;;;;5013057;28;20022;-79
2022/05/05 03:02:23;;;;;;;11.52;8.43;;;7.90;89.00;;;;;;4996344;28;20029;-76
2022/05/05 03:04:49;;;;;;;11.57;8.35;;;7.90;90.20;;;;;;4996464;28;20034;-80
2022/05/05 03:07:15;;;;;;;11.23;8.35;;;7.80;90.80;;;;;;5012941;28;20441;-80
2022/05/05 03:09:41;;;;;;;12.40;7.95;;;7.80;91.70;;;;;;4996387;28;20030;-76
2022/05/05 03:12:08;;;;;;;13.52;8.85;;;7.80;91.40;;;;;;5013759;28;20085;-75
2022/05/05 03:14:34;;;;;;;11.05;8.80;;;7.80;90.60;;;;;;5012368;28;20034;-80
2022/05/05 03:17:00;;;;;;;11.77;8.25;;;7.80;91.10;;;;;;4997206;28;20528;-80
2022/05/05 03:19:26;;;;;;;12.75;8.45;;;7.80;91.70;;;;;;4976644;28;20427;-79
2022/05/05 03:21:52;;;;;;;13.50;8.70;;;7.80;92.40;;;;;;4994379;28;20069;-78
2022/05/05 03:24:18;;;;;;;9.30;8.05;;;7.80;92.80;;;;;;4994016;28;20030;-75
2022/05/05 03:26:43;;;;;;;10.55;8.10;;;7.80;93.00;;;;;;4976603;28;20030;-76
2022/05/05 03:29:09;;;;;;;9.88;8.75;;;7.80;93.40;;;;;;4994056;28;20022;-79
2022/05/05 03:31:35;;;;;;;10.45;8.43;;;7.80;94.20;;;;;;4992807;28;20022;-77
2022/05/05 03:34:00;;;;;;;12.45;8.00;;;7.80;93.40;;;;;;4976688;28;20097;-75
2022/05/05 03:36:26;;;;;;;11.10;8.32;;;7.80;93.70;;;;;;4993647;28;20033;-76
2022/05/05 03:38:52;;;;;;;11.07;8.40;;;7.80;94.00;;;;;;4993963;28;20408;-79
2022/05/05 03:41:19;;;;;;;10.75;8.55;;;7.80;93.10;;;;;;4994036;28;20459;-75
2022/05/05 03:43:44;;;;;;;15.63;8.85;;;7.80;93.50;;;;;;4976686;28;20031;-75
2022/05/05 03:46:10;;;;;;;10.68;7.75;;;7.80;93.60;;;;;;4992440;28;20399;-78
2022/05/05 03:48:36;;;;;;;10.55;9.02;;;7.90;93.10;;;;;;4976501;28;20018;-76
2022/05/05 03:51:01;;;;;;;10.70;8.13;;;8.00;93.50;;;;;;4993737;28;20418;-79
2022/05/05 03:53:27;;;;;;;10.35;8.98;;;8.10;91.40;;;;;;4976291;28;20045;-75
2022/05/05 03:55:53;;;;;;;12.30;8.07;;;8.20;91.70;;;;;;4976223;28;20034;-78
2022/05/05 03:58:18;;;;;;;12.23;8.80;;;8.40;89.70;;;;;;4993578;28;20026;-79
2022/05/05 04:00:46;;;;;;;12.43;8.48;;;8.50;89.10;;;;;;4993498;28;20057;-78
2022/05/05 04:06:00;;;;;;;11.65;8.40;;;8.70;87.00;;;;;;4993784;28;20093;-76
2022/05/05 04:08:26;;;;;;;12.65;8.93;;;8.80;86.20;;;;;;4976284;28;20023;-80
2022/05/05 04:10:52;;;;;;;16.88;8.00;;;8.90;86.70;;;;;;4993509;28;20062;-76
2022/05/05 04:13:19;;;;;;;12.27;9.40;;;9.00;85.80;;;;;;4976211;28;20396;-79
2022/05/05 04:15:45;;;;;;;14.45;9.18;;;9.10;85.10;;;;;;4993521;28;20117;-79
2022/05/05 04:18:10;;;;;;;10.02;8.65;;;9.10;84.50;;;;;;4993414;28;20428;-79
2022/05/05 04:20:36;;;;;;;14.70;9.18;;;9.20;84.60;;;;;;4993383;28;20066;-79
2022/05/05 04:23:02;;;;;;;11.60;8.95;;;9.30;84.60;;;;;;4993578;28;20033;-79
2022/05/05 04:25:27;;;;;;;13.65;9.07;;;9.40;84.10;;;;;;4993558;28;20022;-79
2022/05/05 04:27:53;;;;;;;13.68;8.13;;;9.40;83.20;;;;;;4993694;28;20027;-76
2022/05/05 04:30:19;;;;;;;14.10;9.30;;;9.40;83.20;;;;;;4979882;28;20137;-76
2022/05/05 04:32:45;;;;;;;12.27;8.82;;;9.50;83.90;;;;;;4997219;28;20027;-79
2022/05/05 04:35:11;;;;;;;15.00;8.77;;;9.60;85.60;;;;;;4979756;28;20019;-76
2022/05/05 04:37:38;;;;;;;12.15;8.55;;;9.70;85.60;;;;;;4997304;28;20033;-77
2022/05/05 04:40:04;;;;;;;11.60;8.80;;;9.80;85.40;;;;;;4997160;28;20460;-80
2022/05/05 04:42:30;;;;;;;10.77;9.23;;;9.90;83.00;;;;;;4997065;28;20033;-77
2022/05/05 04:44:55;;;;;;;15.43;8.48;;;10.00;82.80;;;;;;4997106;28;20030;-79
2022/05/05 04:47:21;;;;;;;15.18;9.90;;;10.10;82.00;;;;;;4979699;28;20034;-76
2022/05/05 04:49:46;;;;;;;13.40;8.68;;;10.20;81.10;;;;;;4997074;28;20467;-79
2022/05/05 04:52:12;;;;;;;15.23;9.63;;;10.30;80.80;;;;;;4979426;28;20499;-79
2022/05/05 04:54:37;;;;;;;16.02;10.50;;;10.40;80.20;;;;;;4996833;28;20030;-81
2022/05/05 04:57:03;;;;;;;17.20;11.38;;;10.50;80.60;;;;;;4979444;28;20025;-77
2022/05/05 04:59:29;;;;;;;14.70;9.63;;;10.50;80.80;;;;;;4996596;28;20030;-80
2022/05/05 05:01:55;;;;;;;10.82;8.70;;;10.60;80.30;;;;;;4996510;28;20069;-80
2022/05/05 05:04:20;;;;;;;15.35;9.30;;;10.60;79.70;;;;;;4996835;28;20030;-79
2022/05/05 05:06:46;;;;;;;13.65;9.43;;;10.70;77.90;;;;;;4996800;28;20022;-76
2022/05/05 05:09:12;;;;;;;17.13;10.10;;;10.80;77.50;;;;;;4996461;28;20097;-76
2022/05/05 05:11:37;;;;;;;13.20;8.82;;;10.80;76.70;;;;;;4996212;28;20074;-76
2022/05/05 05:14:03;;;;;;;13.55;9.52;;;11.00;76.80;;;;;;4978794;28;20072;-76
2022/05/05 05:16:29;;;;;;;12.55;9.15;;;11.10;75.50;;;;;;4998372;28;20030;-76
2022/05/05 05:18:55;;;;;;;11.63;9.13;;;11.30;75.20;;;;;;5015786;28;20026;-80
2022/05/05 05:21:20;;;;;;;10.90;9.05;;;11.30;72.90;;;;;;5015781;28;20029;-80
2022/05/05 05:23:46;;;;;;;13.18;10.05;;;11.40;73.50;;;;;;5008553;28;20101;-81
2022/05/05 05:26:13;;;;;;;13.30;9.50;;;11.40;73.20;;;;;;5000670;28;20026;-81
2022/05/05 05:28:40;;;;;;;13.27;9.25;;;11.40;72.80;;;;;;5015629;28;20026;-81
2022/05/05 05:31:05;;;;;;;13.38;8.48;;;11.60;73.10;;;;;;5012306;28;20106;-80
2022/05/05 05:33:31;;;;;;;11.48;8.45;;;11.70;72.90;;;;;;4997933;28;20057;-80
2022/05/05 05:35:57;;;;;;;13.05;8.82;;;11.80;72.10;;;;;;5013866;28;20124;-81
2022/05/05 05:38:23;;;;;;;10.77;8.55;;;12.00;71.50;;;;;;4995879;28;20113;-82
2022/05/05 05:40:48;;;;;;;11.50;8.75;;;12.20;71.50;;;;;;4995176;28;20106;-81
2022/05/05 05:43:14;;;;;;;12.48;9.00;;;12.20;71.50;;;;;;4994705;28;20034;-81
2022/05/05 05:45:40;;;;;;;14.57;10.30;;;12.30;71.30;;;;;;4996291;28;20025;-82
2022/05/05 05:48:06;;;;;;;10.23;8.38;;;12.30;70.90;;;;;;4982646;28;20027;-81
2022/05/05 05:50:32;;;;;;;12.45;9.27;;;12.40;70.70;;;;;;5003992;28;20049;-82
2022/05/05 05:52:58;;;;;;;10.88;9.32;;;12.50;70.60;;;;;;5004172;28;20027;-78
2022/05/05 05:55:24;;;;;;;12.48;8.73;;;12.70;69.90;;;;;;5014186;28;20022;-77
2022/05/05 05:57:49;;;;;;;12.98;9.38;;;12.80;68.70;;;;;;5015243;28;20038;-78
2022/05/05 06:00:15;;;;;;;12.68;9.75;;;12.90;68.40;;;;;;4996467;28;20022;-78
2022/05/05 06:05:26;;;;;;;13.15;10.70;;;13.10;68.10;;;;;;5004490;28;20036;-82
2022/05/05 06:07:52;;;;;;;12.40;9.35;;;13.30;67.40;;;;;;5001535;28;20038;-82
2022/05/05 06:10:18;;;;;;;12.80;9.75;;;13.50;67.70;;;;;;4993867;28;20514;-82
2022/05/05 06:12:44;;;;;;;13.73;9.60;;;13.70;67.40;;;;;;5005139;28;20033;-83
2022/05/05 06:15:10;;;;;;;11.10;9.20;;;13.90;67.30;;;;;;4993181;28;20037;-83
2022/05/05 06:17:35;;;;;;;11.98;9.50;;;14.10;67.00;;;;;;4992650;28;20077;-78
2022/05/05 06:20:01;;;;;;;12.73;9.27;;;14.30;66.70;;;;;;4975364;28;20037;-76
2022/05/05 06:22:27;;;;;;;11.68;9.48;;;14.40;66.00;;;;;;4994149;28;20014;-79
2022/05/05 06:24:53;;;;;;;10.50;9.18;;;14.50;65.40;;;;;;4976736;28;20034;-80
2022/05/05 06:27:18;;;;;;;14.02;9.40;;;14.70;65.50;;;;;;4994167;28;20026;-82
2022/05/05 06:29:44;;;;;;;13.57;10.13;;;15.00;65.10;;;;;;4996580;28;20548;-79
2022/05/05 06:32:09;;;;;;;20.30;10.57;;;15.00;64.80;;;;;;4994051;28;20050;-80
2022/05/05 06:34:35;;;;;;;16.23;10.77;;;15.10;64.90;;;;;;5011975;28;20110;-80
2022/05/05 06:37:01;;;;;;;22.95;13.23;;;15.30;64.50;;;;;;5008112;28;20158;-83
2022/05/05 06:39:26;;;;;;;13.32;10.20;;;15.50;64.50;;;;;;4998186;28;20035;-83
2022/05/05 06:41:52;;;;;;;22.10;13.73;;;15.50;64.30;;;;;;4976398;28;20428;-83
2022/05/05 06:44:18;;;;;;;26.33;16.67;;;15.70;65.80;;;;;;4995390;28;20199;-80
2022/05/05 06:46:44;;;;;;;15.85;11.82;;;15.80;65.40;;;;;;4994602;28;20022;-83
2022/05/05 06:49:10;;;;;;;16.20;9.85;;;16.00;64.80;;;;;;5013897;28;20168;-84
2022/05/05 06:51:37;;;;;;;12.85;10.43;;;16.20;64.40;;;;;;5013578;28;20086;-82
2022/05/05 06:54:02;;;;;;;12.00;9.90;;;16.30;64.90;;;;;;4995889;28;20396;-81
2022/05/05 06:56:29;;;;;;;15.77;10.82;;;16.40;64.70;;;;;;5014338;28;20029;-82
2022/05/05 06:58:54;;;;;;;15.48;10.60;;;16.60;64.80;;;;;;4996540;28;20017;-83
2022/05/05 07:06:48;;;;;;;14.68;10.82;;;16.90;62.80;;;;;;5014000;28;20032;-82
2022/05/05 07:11:58;;;;;;;15.82;10.93;;;17.30;63.50;;;;;;5014271;28;20053;-84
2022/05/05 07:14:23;;;;;;;12.98;10.43;;;17.50;62.90;;;;;;5014249;28;20030;-82
2022/05/05 07:16:49;;;;;;;12.77;9.75;;;17.60;63.00;;;;;;5013970;28;20491;-84
2022/05/05 07:19:15;;;;;;;14.90;9.93;;;17.70;61.90;;;;;;5012861;28;20022;-84
2022/05/05 07:21:41;;;;;;;11.18;8.95;;;17.80;62.50;;;;;;5012735;28;20034;-82
2022/05/05 07:24:07;;;;;;;9.65;7.50;;;17.90;61.60;;;;;;5011111;28;20742;-84
2022/05/05 07:26:32;;;;;;;9.65;7.60;;;18.00;60.90;;;;;;4994559;28;20037;-82
2022/05/05 07:28:58;;;;;;;11.35;7.03;;;18.00;59.90;;;;;;5011893;28;20535;-83
2022/05/05 07:31:23;;;;;;;12.30;8.18;;;18.10;60.30;;;;;;5011787;28;20045;-84
2022/05/05 07:33:49;;;;;;;12.60;8.38;;;18.10;59.80;;;;;;4994161;28;20110;-83
2022/05/05 07:36:14;;;;;;;11.27;8.38;;;18.20;61.10;;;;;;5011786;28;20057;-83
2022/05/05 07:38:40;;;;;;;17.50;10.98;;;18.30;59.50;;;;;;4995373;28;20467;-83
2022/05/05 07:41:06;;;;;;;9.98;8.20;;;18.40;60.00;;;;;;4996088;28;20045;-84
2022/05/05 07:43:31;;;;;;;11.82;7.80;;;18.50;59.30;;;;;;5013765;28;20061;-85
2022/05/05 07:45:57;;;;;;;10.00;7.70;;;18.60;59.00;;;;;;4996080;28;20029;-83
2022/05/05 07:48:22;;;;;;;11.98;8.60;;;18.70;58.20;;;;;;5013626;28;20030;-84
2022/05/05 07:50:48;;;;;;;12.52;8.35;;;18.60;57.30;;;;;;5011771;28;20108;-85
2022/05/05 07:53:14;;;;;;;13.48;8.35;;;18.70;57.60;;;;;;4994266;28;20078;-84
2022/05/05 07:55:40;;;;;;;14.10;8.82;;;18.80;58.40;;;;;;4976613;28;20045;-83
2022/05/05 07:58:06;;;;;;;12.63;8.10;;;19.00;57.50;;;;;;4994019;28;20444;-85
2022/05/05 08:00:31;;;;;;;16.02;9.40;;;19.10;57.60;;;;;;4976587;28;20030;-83
2022/05/05 08:02:57;;;;;;;12.80;8.40;;;19.20;56.30;;;;;;4993854;28;20069;-84
2022/05/05 08:05:23;;;;;;;8.50;7.55;;;19.30;55.20;;;;;;4998213;28;20034;-83
2022/05/05 08:07:49;;;;;;;13.82;9.38;;;19.50;55.10;;;;;;4980560;28;20532;-85
2022/05/05 08:10:17;;;;;;;9.95;8.20;;;19.50;53.40;;;;;;4997640;28;20058;-84
2022/05/05 08:12:45;;;;;;;12.25;9.35;;;19.50;53.70;;;;;;4980246;28;20019;-85
2022/05/05 08:15:11;;;;;;;9.63;8.63;;;19.60;54.00;;;;;;4997721;28;20100;-83
2022/05/05 08:17:37;;;;;;;11.80;8.57;;;19.70;53.80;;;;;;4997791;28;20100;-84
2022/05/05 08:20:05;;;;;;;11.57;8.95;;;19.80;53.70;;;;;;4980180;28;20022;-85
2022/05/05 08:22:31;;;;;;;8.73;7.65;;;19.90;52.70;;;;;;4996150;28;20018;-84
2022/05/05 08:30:25;;;;;;;12.90;9.25;;;20.20;52.90;;;;;;4997641;28;20572;-85
2022/05/05 08:32:51;;;;;;;11.98;9.05;;;20.30;52.50;;;;;;4997529;28;20097;-85
2022/05/05 08:35:17;;;;;;;12.00;8.82;;;20.30;52.40;;;;;;4997431;28;20169;-85
2022/05/05 08:37:42;;;;;;;14.23;9.10;;;20.40;51.10;;;;;;4997376;28;20050;-85
2022/05/05 08:40:11;;;;;;;10.05;7.75;;;20.60;52.20;;;;;;4980011;28;20026;-85
2022/05/05 08:42:37;;;;;;;11.95;8.70;;;20.70;51.40;;;;;;4996825;28;20085;-85
2022/05/05 08:45:03;;;;;;;10.38;8.57;;;20.80;50.30;;;;;;4997277;28;20034;-85
2022/05/05 08:47:32;;;;;;;10.88;7.95;;;20.80;48.80;;;;;;4979646;28;20034;-86
2022/05/05 08:49:59;;;;;;;11.82;8.98;;;20.80;48.80;;;;;;4979308;28;20038;-85
2022/05/05 08:52:26;;;;;;;10.13;7.43;;;20.80;48.70;;;;;;4997272;28;20025;-84
2022/05/05 08:54:51;;;;;;;9.60;8.00;;;20.70;49.00;;;;;;4996807;28;20026;-86
2022/05/05 08:57:17;;;;;;;9.35;7.88;;;20.80;48.70;;;;;;4997037;28;20080;-86
2022/05/05 08:59:42;;;;;;;10.63;8.70;;;20.80;50.00;;;;;;4979955;28;20022;-86
2022/05/05 09:02:10;;;;;;;9.50;8.07;;;21.00;49.20;;;;;;4997335;28;20023;-86
2022/05/05 09:04:35;;;;;;;8.52;7.40;;;21.00;49.00;;;;;;4979601;28;20030;-86
2022/05/05 09:07:01;;;;;;;7.45;6.72;;;21.10;47.40;;;;;;4997186;28;20160;-85
2022/05/05 09:09:32;;;;;;;9.20;6.85;;;21.10;45.80;;;;;;4997015;28;20046;-86
2022/05/05 09:12:12;;;;;;;10.93;8.30;;;21.00;44.90;;;;;;4995760;28;20385;-86
2022/05/05 09:14:39;;;;;;;12.40;7.53;;;21.10;46.50;;;;;;4996336;28;20033;-85
2022/05/05 09:17:10;;;;;;;8.13;7.20;;;21.30;47.10;;;;;;4996543;28;20030;-85
2022/05/05 09:19:38;;;;;;;8.45;7.50;;;21.40;45.90;;;;;;4978969;28;20027;-85
2022/05/05 09:22:05;;;;;;;8.65;7.75;;;21.60;46.90;;;;;;4996785;28;20022;-85
2022/05/05 09:24:40;;;;;;;13.18;7.85;;;21.40;45.60;;;;;;4979095;28;20431;-85
2022/05/05 09:27:21;;;;;;;8.18;6.90;;;21.20;46.80;;;;;;4995982;28;20387;-85
2022/05/05 09:30:02;;;;;;;7.95;6.97;;;21.10;47.70;;;;;;4996713;28;20176;-86
2022/05/05 09:32:34;;;;;;;7.50;6.43;;;21.00;47.10;;;;;;4996921;28;20034;-85
2022/05/05 09:35:13;;;;;;;12.45;7.53;;;21.40;47.20;;;;;;4995014;28;20510;-87
2022/05/05 09:37:48;;;;;;;7.32;6.72;;;21.70;46.60;;;;;;4996151;28;20026;-87
2022/05/05 09:40:18;;;;;;;8.63;6.70;;;21.80;45.60;;;;;;4996081;28;20029;-87
2022/05/05 09:42:52;;;;;;;6.90;6.25;;;21.90;45.00;;;;;;4996202;28;20484;-86
2022/05/05 09:45:25;;;;;;;8.00;7.15;;;21.70;44.70;;;;;;4978822;28;20476;-88
2022/05/05 09:47:53;;;;;;;8.38;7.00;;;21.90;45.20;;;;;;4978736;28;20496;-87
2022/05/05 09:50:21;;;;;;;9.02;7.18;;;21.90;43.40;;;;;;4996265;28;20034;-87
2022/05/05 09:58:23;;;;;;;7.47;6.53;;;22.00;42.70;;;;;;4996172;28;20041;-85
2022/05/05 10:06:35;;;;;;;10.05;7.45;;;22.20;41.90;;;;;;4995605;28;20044;-85
2022/05/05 10:09:04;;;;;;;9.07;6.78;;;22.50;43.40;;;;;;4978372;28;20073;-86
2022/05/05 10:11:30;;;;;;;6.95;6.28;;;22.50;42.00;;;;;;4977835;28;20054;-86
2022/05/05 10:13:56;;;;;;;7.90;7.10;;;22.70;42.60;;;;;;4995064;28;20041;-83
2022/05/05 10:16:22;;;;;;;8.45;6.47;;;22.70;41.30;;;;;;4995088;28;20105;-84
2022/05/05 10:18:50;;;;;;;8.90;6.43;;;22.80;40.90;;;;;;4995166;28;20417;-84
2022/05/05 10:21:27;;;;;;;8.02;6.20;;;22.50;41.20;;;;;;4995190;28;20029;-86
2022/05/05 10:24:17;;;;;;;6.88;6.00;;;22.00;41.80;;;;;;4977673;28;20030;-86
2022/05/05 10:26:49;;;;;;;7.13;6.40;;;22.10;43.00;;;;;;4976764;28;20468;-86
2022/05/05 10:29:44;;;;;;;7.57;6.60;;;22.20;41.90;;;;;;4977842;28;20472;-86
2022/05/05 10:32:13;;;;;;;8.15;6.82;;;22.40;41.40;;;;;;4969843;28;20049;-86
2022/05/05 10:34:40;;;;;;;6.28;5.70;;;22.50;41.00;;;;;;4994878;28;20029;-83
2022/05/05 10:37:14;;;;;;;6.85;6.22;;;22.40;42.00;;;;;;4995083;28;20426;-86
2022/05/05 10:39:42;;;;;;;7.10;6.40;;;22.20;40.70;;;;;;4978194;28;20034;-84
2022/05/05 10:42:14;;;;;;;7.80;7.00;;;22.00;40.90;;;;;;4977393;28;20076;-84
2022/05/05 10:45:14;;;;;;;7.00;6.35;;;22.00;41.70;;;;;;4993700;28;20065;-87
2022/05/05 10:47:52;;;;;;;8.15;6.75;;;22.30;41.90;;;;;;4995009;28;20041;-87
2022/05/05 10:50:39;;;;;;;9.82;6.85;;;22.50;44.20;;;;;;4994608;28;20490;-84
2022/05/05 10:53:06;;;;;;;8.95;7.22;;;22.30;42.80;;;;;;4994728;28;20419;-84
2022/05/05 10:55:40;;;;;;;7.82;6.20;;;22.10;42.60;;;;;;4995328;28;20089;-84
2022/05/05 10:58:09;;;;;;;12.95;10.07;;;22.10;44.00;;;;;;4994493;28;20028;-88
2022/05/05 11:00:41;;;;;;;7.55;6.70;;;22.20;43.40;;;;;;4994656;28;20125;-87
2022/05/05 11:03:07;;;;;;;9.52;8.48;;;22.60;44.10;;;;;;4994200;28;20050;-84
2022/05/05 11:05:40;;;;;;;7.18;6.55;;;22.70;43.30;;;;;;4994261;28;20072;-83
2022/05/05 11:08:17;;;;;;;7.80;7.03;;;22.80;41.90;;;;;;4977170;28;20026;-84
2022/05/05 11:10:46;;;;;;;7.28;6.28;;;22.80;41.20;;;;;;4976628;28;20054;-88
2022/05/05 11:13:30;;;;;;;7.90;6.55;;;23.20;41.90;;;;;;4976810;28;20036;-85
2022/05/05 11:21:36;;;;;;;6.53;5.35;;;23.10;41.30;;;;;;4994396;28;20165;-84
2022/05/05 11:24:02;;;;;;;6.65;6.07;;;23.10;41.00;;;;;;4994099;28;20022;-85
2022/05/05 11:26:28;;;;;;;9.35;6.65;;;22.90;40.90;;;;;;4993952;28;20089;-85
2022/05/05 11:28:54;;;;;;;7.93;6.63;;;22.70;41.50;;;;;;4994267;28;20026;-85
2022/05/05 11:31:24;;;;;;;6.93;6.25;;;22.50;43.70;;;;;;4993676;28;20088;-89
2022/05/05 11:33:53;;;;;;;6.95;6.35;;;22.30;42.90;;;;;;4976690;28;20026;-79
2022/05/05 11:36:19;;;;;;;6.60;6.00;;;22.20;43.70;;;;;;4993887;28;20032;-84
2022/05/05 11:38:44;;;;;;;6.43;5.80;;;22.40;43.70;;;;;;4983814;28;20022;-80
2022/05/05 11:41:10;;;;;;;7.70;6.22;;;22.70;43.40;;;;;;4992607;28;20120;-81
2022/05/05 11:46:20;;;;;;;6.85;6.25;;;23.00;40.70;;;;;;5011853;28;20349;-79
2022/05/05 11:48:54;;;;;;;6.47;5.90;;;23.20;40.30;;;;;;5012648;28;20025;-78
2022/05/05 11:51:21;;;;;;;6.40;5.80;;;23.30;40.30;;;;;;5010645;28;20041;-79
2022/05/05 11:53:47;;;;;;;6.07;5.57;;;23.10;40.00;;;;;;5012391;28;20025;-80
2022/05/05 11:56:13;;;;;;;7.53;6.05;;;23.10;40.10;;;;;;5010421;28;20029;-80
2022/05/05 12:01:37;;;;;;;6.07;5.47;;;23.00;40.10;;;;;;5011596;28;20456;-79
2022/05/05 12:04:03;;;;;;;6.20;5.70;;;23.20;40.40;;;;;;4994503;28;20672;-79
2022/05/05 12:06:30;;;;;;;6.00;5.40;;;23.40;41.00;;;;;;5011708;28;20034;-78
2022/05/05 12:08:57;;;;;;;6.65;6.03;;;23.30;41.30;;;;;;4994599;28;20420;-79
2022/05/05 12:11:25;;;;;;;7.10;6.50;;;23.10;41.30;;;;;;5001245;28;20050;-80
2022/05/05 12:13:51;;;;;;;9.68;6.60;;;22.90;41.10;;;;;;4980803;28;20053;-80
2022/05/05 12:16:17;;;;;;;7.10;6.40;;;22.70;41.40;;;;;;5002288;28;20069;-84
2022/05/05 12:18:55;;;;;;;7.20;6.15;;;22.30;42.20;;;;;;4982892;28;20460;-80
2022/05/05 12:21:25;;;;;;;7.18;6.28;;;22.10;42.90;;;;;;4992237;28;20034;-79
2022/05/05 12:24:02;;;;;;;7.72;6.68;;;21.90;43.10;;;;;;4975462;28;20018;-77
2022/05/05 12:26:29;;;;;;;12.98;7.20;;;22.00;43.80;;;;;;5002894;28;20040;-79
2022/05/05 12:28:56;;;;;;;8.82;6.13;;;22.00;44.50;;;;;;4994317;28;20029;-79
2022/05/05 12:31:22;;;;;;;8.10;6.53;;;21.90;44.60;;;;;;4977176;28;20492;-83
2022/05/05 12:33:48;;;;;;;9.98;6.65;;;22.00;44.30;;;;;;4992611;28;20030;-80
2022/05/05 12:36:14;;;;;;;7.60;5.90;;;21.90;43.50;;;;;;4974433;28;20388;-81
2022/05/05 12:38:40;;;;;;;8.93;6.60;;;21.90;44.20;;;;;;4975233;28;20023;-81
2022/05/05 12:41:09;;;;;;;7.40;6.55;;;21.80;45.60;;;;;;4974245;28;20447;-81
2022/05/05 12:43:35;;;;;;;6.45;5.95;;;21.80;45.40;;;;;;4964482;28;20057;-81
2022/05/05 12:46:04;;;;;;;7.22;6.03;;;21.70;45.70;;;;;;4990764;28;20030;-83
2022/05/05 12:48:31;;;;;;;7.95;7.03;;;21.60;45.60;;;;;;4992222;28;20034;-82
2022/05/05 12:50:57;;;;;;;6.93;6.25;;;21.60;45.90;;;;;;4995469;28;20042;-81
2022/05/05 13:01:48;;;;;;;8.32;6.82;;;21.40;46.40;;;;;;4995500;28;20037;-86
2022/05/05 13:04:17;;;;;;;7.20;6.60;;;21.30;46.90;;;;;;4995478;28;20022;-85
2022/05/05 13:06:45;;;;;;;6.93;6.30;;;21.30;47.40;;;;;;4994978;28;20039;-85
2022/05/05 13:09:11;;;;;;;7.10;6.35;;;21.30;47.20;;;;;;4994533;28;20030;-90
2022/05/05 13:11:38;;;;;;;8.05;6.55;;;21.20;47.40;;;;;;4994644;28;20050;-89
2022/05/05 13:14:05;;;;;;;7.72;6.97;;;21.20;47.60;;;;;;5005385;28;20034;-91
2022/05/05 13:16:31;;;;;;;7.13;6.43;;;21.00;49.20;;;;;;4997535;28;20030;-91
2022/05/05 13:18:58;;;;;;;7.88;7.10;;;20.80;50.30;;;;;;4997590;28;20025;-86
2022/05/05 13:21:25;;;;;;;7.88;6.82;;;20.70;51.10;;;;;;4986079;28;20073;-85
2022/05/05 13:23:51;;;;;;;7.65;6.57;;;20.50;52.10;;;;;;5001668;28;20104;-84
2022/05/05 13:26:17;;;;;;;8.15;7.35;;;20.50;52.50;;;;;;5003610;28;20050;-84
2022/05/05 13:28:43;;;;;;;7.85;7.13;;;20.30;52.90;;;;;;5010826;28;20037;-90
2022/05/05 13:31:08;;;;;;;7.28;6.68;;;20.20;54.10;;;;;;5015599;28;20041;-84
2022/05/05 13:33:34;;;;;;;7.13;6.45;;;20.10;54.60;;;;;;4995411;28;20027;-84
2022/05/05 13:36:00;;;;;;;7.80;7.10;;;20.00;56.80;;;;;;5004424;28;20022;-85
2022/05/05 13:38:26;;;;;;;7.75;6.97;;;19.90;57.50;;;;;;5015513;28;20534;-88
2022/05/05 13:40:52;;;;;;;8.27;7.60;;;19.80;60.20;;;;;;4997930;28;20384;-85